createdAt,value
2018-12-16T00:01:39.057Z,5.47
2018-12-16T00:04:08.591Z,5.70
2018-12-16T00:06:37.867Z,5.53
2018-12-16T00:09:07.067Z,6.40
2018-12-16T00:11:36.420Z,5.63
2018-12-16T00:14:05.399Z,5.17
2018-12-16T00:16:35.283Z,6.27
2018-12-16T00:19:04.383Z,6.43
2018-12-16T00:21:33.277Z,6.57
2018-12-16T00:24:02.612Z,6.63
2018-12-16T00:29:33.707Z,6.47
2018-12-16T00:32:02.999Z,7.10
2018-12-16T00:34:32.119Z,7.13
2018-12-16T00:37:01.638Z,7.83
2018-12-16T00:39:31.556Z,7.43
2018-12-16T00:42:00.627Z,7.37
2018-12-16T00:44:29.611Z,7.37
2018-12-16T00:46:59.112Z,6.50
2018-12-16T00:49:28.200Z,7.47
2018-12-16T00:51:57.459Z,7.53
2018-12-16T00:54:26.966Z,7.40
2018-12-16T00:56:56.091Z,6.83
2018-12-16T00:59:25.195Z,7.97
2018-12-16T01:01:54.283Z,7.17
2018-12-16T01:04:23.489Z,7.77
2018-12-16T01:06:53.293Z,7.60
2018-12-16T01:09:22.479Z,7.60
2018-12-16T01:11:51.475Z,7.70
2018-12-16T01:14:20.651Z,7.70
2018-12-16T01:16:50.188Z,7.20
2018-12-16T01:19:19.147Z,7.30
2018-12-16T01:21:48.074Z,8.37
2018-12-16T01:24:18.367Z,7.83
2018-12-16T01:26:47.499Z,7.80
2018-12-16T01:29:16.496Z,7.17
2018-12-16T01:31:46.107Z,8.77
2018-12-16T01:34:15.195Z,7.80
2018-12-16T01:36:44.303Z,7.37
2018-12-16T01:39:13.404Z,8.20
2018-12-16T01:41:43.146Z,7.77
2018-12-16T01:44:12.725Z,7.73
2018-12-16T01:46:41.725Z,7.60
2018-12-16T01:49:11.229Z,7.80
2018-12-16T01:51:40.187Z,8.33
2018-12-16T01:54:09.222Z,7.27
2018-12-16T01:56:38.424Z,8.00
2018-12-16T01:59:07.727Z,7.30
2018-12-16T02:01:39.281Z,8.43
2018-12-16T02:04:08.482Z,7.60
2018-12-16T02:06:37.991Z,7.63
2018-12-16T02:09:07.497Z,8.30
2018-12-16T02:11:36.494Z,8.10
2018-12-16T02:14:05.437Z,7.03
2018-12-16T02:16:35.305Z,7.97
2018-12-16T02:19:04.367Z,7.87
2018-12-16T02:21:33.272Z,8.13
2018-12-16T02:24:02.601Z,7.53
2018-12-16T02:26:31.700Z,8.20
2018-12-16T02:29:01.004Z,7.73
2018-12-16T02:31:29.911Z,8.20
2018-12-16T02:33:58.911Z,7.87
2018-12-16T02:36:28.351Z,7.13
2018-12-16T02:38:57.476Z,7.73
2018-12-16T02:41:26.604Z,7.30
2018-12-16T02:43:55.901Z,7.00
2018-12-16T02:46:25.717Z,7.63
2018-12-16T02:48:54.781Z,7.57
2018-12-16T02:51:23.792Z,7.93
2018-12-16T02:53:52.775Z,7.00
2018-12-16T02:56:21.905Z,7.50
2018-12-16T02:58:51.004Z,7.70
2018-12-16T03:01:20.161Z,7.57
2018-12-16T03:03:49.098Z,8.13
2018-12-16T03:06:18.710Z,7.70
2018-12-16T03:08:47.667Z,7.60
2018-12-16T03:11:16.804Z,7.67
2018-12-16T03:13:46.110Z,6.67
2018-12-16T03:16:15.368Z,7.43
2018-12-16T03:18:44.459Z,6.53
2018-12-16T03:21:13.609Z,7.30
2018-12-16T03:23:42.708Z,6.63
2018-12-16T03:26:11.910Z,5.60
2018-12-16T03:28:41.109Z,6.00
2018-12-16T03:31:10.074Z,5.60
2018-12-16T03:33:38.967Z,5.13
2018-12-16T03:36:07.948Z,4.87
2018-12-16T03:38:37.071Z,4.70
2018-12-16T03:41:06.499Z,4.30
2018-12-16T03:43:35.460Z,4.70
2018-12-16T03:46:04.559Z,3.70
2018-12-16T03:48:33.696Z,3.07
2018-12-16T03:51:03.102Z,2.77
2018-12-16T03:53:32.199Z,2.37
2018-12-16T03:56:01.200Z,2.20
2018-12-16T03:58:30.196Z,2.20
2018-12-16T04:00:59.156Z,1.70
2018-12-16T04:03:30.238Z,1.83
2018-12-16T04:05:59.192Z,1.60
2018-12-16T04:08:28.221Z,1.70
2018-12-16T04:10:57.728Z,1.80
2018-12-16T04:13:26.833Z,1.67
2018-12-16T04:15:56.357Z,2.10
2018-12-16T04:18:25.618Z,2.03
2018-12-16T04:20:54.591Z,1.50
2018-12-16T04:23:27.374Z,1.93
2018-12-16T04:25:54.724Z,1.50
2018-12-16T04:28:23.907Z,1.90
2018-12-16T04:30:52.992Z,1.43
2018-12-16T04:33:22.176Z,1.40
2018-12-16T04:35:51.171Z,1.60
2018-12-16T04:38:20.269Z,1.60
2018-12-16T04:40:49.984Z,1.60
2018-12-16T04:43:18.980Z,1.40
2018-12-16T04:45:47.931Z,1.90
2018-12-16T04:48:17.027Z,1.37
2018-12-16T04:50:46.377Z,1.40
2018-12-16T04:53:15.889Z,1.27
2018-12-16T04:55:44.848Z,1.20
2018-12-16T04:58:13.775Z,1.30
2018-12-16T05:00:42.843Z,1.50
2018-12-16T05:03:11.823Z,1.30
2018-12-16T05:05:41.071Z,1.13
2018-12-16T05:08:10.579Z,1.10
2018-12-16T05:10:39.678Z,1.33
2018-12-16T05:13:08.673Z,1.20
2018-12-16T05:15:38.387Z,1.00
2018-12-16T05:18:07.997Z,1.00
2018-12-16T05:20:37.711Z,1.07
2018-12-16T05:23:06.707Z,1.37
2018-12-16T05:25:36.420Z,1.30
2018-12-16T05:28:05.311Z,1.33
2018-12-16T05:30:35.024Z,1.23
2018-12-16T05:33:04.020Z,1.20
2018-12-16T05:35:32.900Z,1.00
2018-12-16T05:38:02.396Z,1.40
2018-12-16T05:40:31.367Z,1.17
2018-12-16T05:43:00.271Z,1.20
2018-12-16T05:45:29.373Z,1.30
2018-12-16T05:47:58.435Z,1.47
2018-12-16T05:50:27.339Z,2.00
2018-12-16T05:52:56.604Z,1.80
2018-12-16T05:55:25.628Z,1.90
2018-12-16T05:57:54.699Z,1.60
2018-12-16T06:00:24.579Z,1.73
2018-12-16T06:02:53.613Z,1.50
2018-12-16T06:05:22.506Z,1.90
2018-12-16T06:07:51.605Z,2.20
2018-12-16T06:10:20.603Z,2.33
2018-12-16T06:12:49.655Z,2.60
2018-12-16T06:15:18.631Z,2.03
2018-12-16T06:17:48.001Z,1.87
2018-12-16T06:20:16.883Z,2.17
2018-12-16T06:22:46.301Z,2.43
2018-12-16T06:25:15.296Z,2.10
2018-12-16T06:27:44.900Z,1.87
2018-12-16T06:30:14.479Z,2.23
2018-12-16T06:32:44.703Z,2.13
2018-12-16T06:35:14.248Z,2.30
2018-12-16T06:37:43.247Z,2.63
2018-12-16T06:40:12.511Z,2.20
2018-12-16T06:42:41.749Z,2.47
2018-12-16T06:45:11.243Z,2.20
2018-12-16T06:47:40.458Z,2.20
2018-12-16T06:50:09.411Z,2.40
2018-12-16T06:52:38.449Z,2.10
2018-12-16T06:55:07.487Z,2.30
2018-12-16T06:57:36.460Z,1.63
2018-12-16T07:00:05.911Z,1.80
2018-12-16T07:02:34.875Z,1.67
2018-12-16T07:05:04.209Z,1.40
2018-12-16T07:07:33.392Z,1.87
2018-12-16T07:10:02.454Z,1.77
2018-12-16T07:12:31.747Z,1.70
2018-12-16T07:15:00.643Z,1.67
2018-12-16T07:17:30.457Z,1.90
2018-12-16T07:19:59.332Z,1.40
2018-12-16T07:22:28.434Z,1.43
2018-12-16T07:24:57.416Z,1.70
2018-12-16T07:27:26.653Z,2.17
2018-12-16T07:29:55.717Z,1.80
2018-12-16T07:32:24.771Z,1.80
2018-12-16T07:34:54.574Z,1.67
2018-12-16T07:37:23.483Z,1.87
2018-12-16T07:39:52.446Z,2.00
2018-12-16T07:42:22.280Z,1.97
2018-12-16T07:44:51.175Z,1.97
2018-12-16T07:47:20.149Z,1.53
2018-12-16T07:49:49.183Z,1.87
2018-12-16T07:52:18.159Z,1.77
2018-12-16T07:54:47.947Z,1.50
2018-12-16T07:57:17.098Z,1.63
2018-12-16T07:59:46.178Z,1.30
2018-12-16T08:02:15.495Z,1.57
2018-12-16T08:04:44.657Z,1.33
2018-12-16T08:07:13.744Z,1.23
2018-12-16T08:09:42.651Z,1.40
2018-12-16T08:12:11.646Z,1.23
2018-12-16T08:14:40.595Z,1.33
2018-12-16T08:17:09.506Z,1.20
2018-12-16T08:19:38.429Z,1.07
2018-12-16T08:22:07.630Z,1.20
2018-12-16T08:24:36.587Z,1.00
2018-12-16T08:27:05.553Z,0.90
2018-12-16T08:29:34.822Z,1.00
2018-12-16T08:32:03.691Z,1.20
2018-12-16T08:34:32.713Z,1.17
2018-12-16T08:37:01.711Z,1.10
2018-12-16T08:39:30.910Z,1.10
2018-12-16T08:42:00.315Z,1.30
2018-12-16T08:44:30.029Z,1.40
2018-12-16T08:46:59.732Z,1.40
2018-12-16T08:49:28.635Z,1.33
2018-12-16T08:51:57.629Z,1.47
2018-12-16T08:54:30.092Z,1.30
2018-12-16T08:56:57.566Z,1.67
2018-12-16T08:59:26.664Z,0.97
2018-12-16T09:01:55.761Z,1.30
2018-12-16T09:04:25.577Z,1.10
2018-12-16T09:06:54.881Z,1.10
2018-12-16T09:09:24.159Z,1.30
2018-12-16T09:11:53.179Z,1.20
2018-12-16T09:14:22.175Z,1.30
2018-12-16T09:16:51.171Z,1.57
2018-12-16T09:19:21.190Z,1.70
2018-12-16T09:21:50.186Z,1.60
2018-12-16T09:24:19.182Z,1.60
2018-12-16T09:26:48.178Z,1.40
2018-12-16T09:29:17.379Z,1.40
2018-12-16T09:31:46.681Z,1.53
2018-12-16T09:34:16.215Z,1.43
2018-12-16T09:36:45.171Z,1.33
2018-12-16T09:39:14.603Z,1.10
2018-12-16T09:41:43.511Z,1.67
2018-12-16T09:44:12.615Z,1.20
2018-12-16T09:46:42.092Z,1.20
2018-12-16T09:49:11.051Z,1.30
2018-12-16T09:51:39.979Z,1.50
2018-12-16T09:54:09.249Z,1.50
2018-12-16T09:56:38.139Z,1.40
2018-12-16T09:59:07.172Z,1.50
2018-12-16T10:01:36.124Z,1.50
2018-12-16T10:04:05.215Z,1.60
2018-12-16T10:06:34.262Z,1.40
2018-12-16T10:09:05.731Z,1.80
2018-12-16T10:11:35.016Z,1.83
2018-12-16T10:14:03.959Z,2.03
2018-12-16T10:16:33.008Z,1.70
2018-12-16T10:19:01.947Z,1.67
2018-12-16T10:21:30.923Z,1.87
2018-12-16T10:24:00.431Z,1.50
2018-12-16T10:26:29.708Z,2.00
2018-12-16T10:28:58.828Z,2.10
2018-12-16T10:31:27.811Z,1.80
2018-12-16T10:33:56.903Z,1.60
2018-12-16T10:36:26.408Z,1.83
2018-12-16T10:38:55.350Z,1.80
2018-12-16T10:41:24.604Z,2.00
2018-12-16T10:43:53.600Z,1.63
2018-12-16T10:46:22.663Z,1.87
2018-12-16T10:48:51.797Z,1.40
2018-12-16T10:51:20.895Z,1.73
2018-12-16T10:53:49.959Z,1.93
2018-12-16T10:56:19.273Z,1.93
2018-12-16T10:58:48.266Z,1.70
2018-12-16T11:01:22.882Z,1.67
2018-12-16T11:03:51.809Z,2.17
2018-12-16T11:06:20.909Z,1.63
2018-12-16T11:08:50.260Z,2.00
2018-12-16T11:11:19.244Z,1.87
2018-12-16T11:13:48.235Z,1.80
2018-12-16T11:16:17.151Z,2.23
2018-12-16T11:18:46.055Z,2.20
2018-12-16T11:21:14.963Z,2.03
2018-12-16T11:23:43.982Z,2.17
2018-12-16T11:26:12.943Z,2.30
2018-12-16T11:28:41.973Z,2.17
2018-12-16T11:31:10.969Z,2.37
2018-12-16T11:33:40.618Z,2.37
2018-12-16T11:36:09.574Z,2.30
2018-12-16T11:38:38.574Z,2.10
2018-12-16T11:41:07.669Z,2.17
2018-12-16T11:43:37.074Z,3.30
2018-12-16T11:46:06.481Z,2.50
2018-12-16T11:48:35.739Z,2.40
2018-12-16T11:51:04.779Z,2.10
2018-12-16T11:53:34.695Z,2.50
2018-12-16T11:56:03.690Z,1.87
2018-12-16T11:58:33.097Z,2.50
2018-12-16T12:01:01.977Z,2.30
2018-12-16T12:03:31.600Z,2.23
2018-12-16T12:06:00.513Z,2.47
2018-12-16T12:08:29.419Z,2.10
2018-12-16T12:10:58.403Z,2.43
2018-12-16T12:13:27.585Z,2.13
2018-12-16T12:15:56.579Z,2.03
2018-12-16T12:18:26.087Z,1.53
2018-12-16T12:20:55.288Z,1.77
2018-12-16T12:23:24.233Z,1.90
2018-12-16T12:25:53.329Z,1.80
2018-12-16T12:28:22.308Z,2.30
2018-12-16T12:30:51.375Z,2.10
2018-12-16T12:33:20.810Z,1.90
2018-12-16T12:35:50.184Z,2.07
2018-12-16T12:38:19.351Z,2.33
2018-12-16T12:40:48.344Z,2.00
2018-12-16T12:43:17.582Z,2.80
2018-12-16T12:45:46.883Z,2.00
2018-12-16T12:48:16.186Z,2.63
2018-12-16T12:50:45.264Z,2.10
2018-12-16T12:53:14.382Z,2.50
2018-12-16T12:55:43.685Z,2.47
2018-12-16T12:58:13.419Z,2.40
2018-12-16T13:00:42.496Z,2.00
2018-12-16T13:03:11.799Z,2.50
2018-12-16T13:05:41.511Z,2.17
2018-12-16T13:08:10.509Z,2.47
2018-12-16T13:10:40.015Z,2.43
2018-12-16T13:13:08.910Z,2.40
2018-12-16T13:15:38.621Z,2.07
2018-12-16T13:18:07.616Z,2.77
2018-12-16T13:20:37.458Z,2.70
2018-12-16T13:23:06.632Z,2.50
2018-12-16T13:25:47.467Z,2.70
2018-12-16T13:28:16.595Z,2.30
2018-12-16T13:30:46.528Z,3.00
2018-12-16T13:33:15.714Z,2.63
2018-12-16T13:35:44.712Z,2.67
2018-12-16T13:38:13.704Z,2.43
2018-12-16T13:40:42.807Z,2.23
2018-12-16T13:43:12.003Z,2.50
2018-12-16T13:45:41.818Z,2.67
2018-12-16T13:48:11.520Z,2.87
2018-12-16T13:50:40.629Z,2.27
2018-12-16T13:53:10.137Z,2.33
2018-12-16T13:55:41.043Z,2.70
2018-12-16T13:58:10.179Z,2.70
2018-12-16T14:00:39.273Z,2.23
2018-12-16T14:03:08.371Z,2.73
2018-12-16T14:05:37.995Z,2.80
2018-12-16T14:08:07.692Z,2.50
2018-12-16T14:10:37.609Z,2.43
2018-12-16T14:13:07.430Z,2.33
2018-12-16T14:15:36.324Z,2.53
2018-12-16T14:18:05.724Z,2.40
2018-12-16T14:20:35.742Z,2.77
2018-12-16T14:23:05.048Z,2.40
2018-12-16T14:25:33.996Z,2.60
2018-12-16T14:28:03.368Z,2.70
2018-12-16T14:30:32.307Z,2.20
2018-12-16T14:33:01.411Z,2.13
2018-12-16T14:35:30.843Z,2.27
2018-12-16T14:38:00.148Z,2.10
2018-12-16T14:40:29.142Z,2.33
2018-12-16T14:42:58.958Z,2.10
2018-12-16T14:45:28.568Z,2.07
2018-12-16T14:47:57.883Z,2.20
2018-12-16T14:50:26.868Z,2.13
2018-12-16T14:52:55.864Z,2.63
2018-12-16T14:55:25.036Z,2.70
2018-12-16T14:57:53.999Z,1.97
2018-12-16T15:00:23.159Z,2.00
2018-12-16T15:02:52.155Z,2.40
2018-12-16T15:05:21.087Z,2.40
2018-12-16T15:07:50.089Z,2.07
2018-12-16T15:10:18.999Z,1.97
2018-12-16T15:12:47.935Z,2.13
2018-12-16T15:15:17.723Z,1.90
2018-12-16T15:17:46.687Z,2.10
2018-12-16T15:20:15.742Z,2.30
2018-12-16T15:22:44.739Z,2.33
2018-12-16T15:25:13.676Z,2.50
2018-12-16T15:27:42.729Z,1.77
2018-12-16T15:30:11.728Z,1.80
2018-12-16T15:32:41.183Z,1.73
2018-12-16T15:35:10.233Z,1.77
2018-12-16T15:37:39.226Z,1.73
2018-12-16T15:40:08.428Z,1.40
2018-12-16T15:42:37.833Z,1.37
2018-12-16T15:45:08.262Z,1.63
2018-12-16T15:47:37.746Z,1.80
2018-12-16T15:50:07.380Z,1.60
2018-12-16T15:52:36.376Z,2.00
2018-12-16T15:55:07.947Z,2.03
2018-12-16T15:57:36.928Z,1.57
2018-12-16T16:00:07.495Z,1.90
2018-12-16T16:02:36.405Z,1.83
2018-12-16T16:05:05.483Z,1.90
2018-12-16T16:07:34.959Z,2.00
2018-12-16T16:10:05.510Z,2.00
2018-12-16T16:12:34.692Z,1.80
2018-12-16T16:15:04.816Z,1.90
2018-12-16T16:17:33.705Z,2.10
2018-12-16T16:20:03.271Z,2.10
2018-12-16T16:22:32.436Z,1.53
2018-12-16T16:25:01.516Z,1.57
2018-12-16T16:27:30.817Z,1.60
2018-12-16T16:29:59.896Z,1.47
2018-12-16T16:32:28.984Z,1.37
2018-12-16T16:34:57.958Z,1.77
2018-12-16T16:37:27.152Z,1.00
2018-12-16T16:39:56.311Z,1.10
2018-12-16T16:42:25.408Z,2.13
2018-12-16T16:44:54.506Z,1.33
2018-12-16T16:47:23.679Z,1.30
2018-12-16T16:49:52.684Z,1.37
2018-12-16T16:52:22.395Z,1.20
2018-12-16T16:54:51.363Z,1.20
2018-12-16T16:57:20.311Z,1.50
2018-12-16T16:59:49.595Z,1.47
2018-12-16T17:02:18.814Z,2.03
2018-12-16T17:04:48.087Z,1.80
2018-12-16T17:07:17.201Z,1.70
2018-12-16T17:09:46.210Z,2.20
2018-12-16T17:12:15.307Z,1.90
2018-12-16T17:14:44.304Z,2.20
2018-12-16T17:17:13.391Z,2.20
2018-12-16T17:19:42.604Z,2.07
2018-12-16T17:22:11.971Z,2.23
2018-12-16T17:24:41.235Z,2.47
2018-12-16T17:27:10.308Z,2.10
2018-12-16T17:29:39.305Z,2.07
2018-12-16T17:32:08.251Z,2.17
2018-12-16T17:34:37.400Z,1.93
2018-12-16T17:37:06.389Z,2.03
2018-12-16T17:39:35.347Z,1.10
2018-12-16T17:42:04.490Z,1.70
2018-12-16T17:44:33.896Z,1.50
2018-12-16T17:47:02.982Z,1.57
2018-12-16T17:49:31.973Z,1.27
2018-12-16T17:52:01.400Z,1.57
2018-12-16T17:54:30.372Z,1.67
2018-12-16T17:56:59.285Z,1.83
2018-12-16T17:59:28.281Z,1.53
2018-12-16T18:01:57.585Z,1.37
2018-12-16T18:04:26.936Z,1.70
2018-12-16T18:06:57.015Z,1.50
2018-12-16T18:09:26.007Z,1.47
2018-12-16T18:11:55.099Z,1.50
2018-12-16T18:14:24.075Z,1.70
2018-12-16T18:16:54.417Z,1.43
2018-12-16T18:19:23.652Z,1.80
2018-12-16T18:21:52.624Z,1.50
2018-12-16T18:24:21.595Z,1.80
2018-12-16T18:26:50.721Z,2.00
2018-12-16T18:29:19.716Z,1.57
2018-12-16T18:31:48.711Z,2.00
2018-12-16T18:34:18.083Z,1.53
2018-12-16T18:36:47.171Z,1.30
2018-12-16T18:39:16.574Z,1.23
2018-12-16T18:41:45.721Z,1.20
2018-12-16T18:44:15.863Z,1.30
2018-12-16T18:46:44.755Z,1.10
2018-12-16T18:49:13.680Z,1.07
2018-12-16T18:51:42.647Z,1.37
2018-12-16T18:54:11.732Z,2.40
2018-12-16T18:56:40.878Z,1.20
2018-12-16T18:59:10.013Z,1.00
2018-12-16T19:01:38.919Z,1.20
2018-12-16T19:04:07.996Z,2.30
2018-12-16T19:06:36.988Z,1.70
2018-12-16T19:09:06.527Z,1.13
2018-12-16T19:11:35.495Z,1.20
2018-12-16T19:14:04.470Z,1.20
2018-12-16T19:16:33.444Z,1.60
2018-12-16T19:19:02.779Z,1.13
2018-12-16T19:21:31.971Z,0.93
2018-12-16T19:24:01.191Z,1.03
2018-12-16T19:26:30.153Z,1.10
2018-12-16T19:28:59.107Z,0.80
2018-12-16T19:31:28.075Z,0.80
2018-12-16T19:33:57.539Z,1.10
2018-12-16T19:36:26.631Z,0.77
2018-12-16T19:38:55.616Z,1.03
2018-12-16T19:41:24.575Z,1.17
2018-12-16T19:43:54.786Z,1.23
2018-12-16T19:46:23.791Z,1.00
2018-12-16T19:48:53.704Z,1.00
2018-12-16T19:51:22.661Z,1.13
2018-12-16T19:53:51.626Z,1.00
2018-12-16T19:56:20.971Z,0.80
2018-12-16T19:58:50.552Z,0.70
2018-12-16T20:01:20.023Z,2.33
2018-12-16T20:03:55.711Z,0.90
2018-12-16T20:06:30.539Z,0.97
2018-12-16T20:08:59.472Z,0.73
2018-12-16T20:11:29.417Z,1.17
2018-12-16T20:13:58.432Z,1.00
2018-12-16T20:16:29.343Z,1.33
2018-12-16T20:18:58.727Z,0.70
2018-12-16T20:21:29.572Z,3.23
2018-12-16T20:23:58.726Z,1.27
2018-12-16T20:26:27.907Z,1.13
2018-12-16T20:28:57.024Z,1.00
2018-12-16T20:31:25.998Z,0.90
2018-12-16T20:33:55.100Z,0.77
2018-12-16T20:36:24.064Z,5.67
2018-12-16T20:38:53.176Z,1.30
2018-12-16T20:41:22.239Z,0.73
2018-12-16T20:43:51.219Z,0.70
2018-12-16T20:46:20.128Z,0.80
2018-12-16T20:48:49.043Z,0.70
2018-12-16T20:51:18.098Z,0.87
2018-12-16T20:53:47.090Z,0.80
2018-12-16T20:56:15.999Z,1.40
2018-12-16T20:58:45.154Z,0.80
2018-12-16T21:01:14.123Z,0.80
2018-12-16T21:03:43.040Z,0.93
2018-12-16T21:06:12.017Z,0.70
2018-12-16T21:08:40.920Z,0.70
2018-12-16T21:14:14.744Z,0.87
2018-12-16T21:16:49.535Z,0.73
2018-12-16T21:19:18.603Z,0.70
2018-12-16T21:21:47.565Z,0.70
2018-12-16T21:24:16.551Z,0.67
2018-12-16T21:26:45.647Z,0.77
2018-12-16T21:29:14.592Z,0.60
2018-12-16T21:31:43.583Z,0.50
2018-12-16T21:34:12.668Z,0.70
2018-12-16T21:36:41.748Z,0.70
2018-12-16T21:39:10.726Z,0.60
2018-12-16T21:41:39.623Z,0.80
2018-12-16T21:44:08.527Z,0.70
2018-12-16T21:46:37.620Z,0.77
2018-12-16T21:49:06.531Z,0.50
2018-12-16T21:51:35.502Z,0.70
2018-12-16T21:54:04.575Z,0.80
2018-12-16T21:56:33.557Z,0.80
2018-12-16T21:59:02.759Z,0.60
2018-12-16T22:01:31.845Z,0.70
2018-12-16T22:04:00.819Z,0.90
2018-12-16T22:06:30.483Z,0.60
2018-12-16T22:08:59.496Z,0.70
2018-12-16T22:11:28.451Z,0.50
2018-12-16T22:13:57.619Z,0.97
2018-12-16T22:16:26.593Z,0.83
2018-12-16T22:18:55.559Z,0.90
2018-12-16T22:21:24.507Z,1.00
2018-12-16T22:23:53.403Z,0.90
2018-12-16T22:26:22.503Z,0.93
2018-12-16T22:28:51.491Z,0.77
2018-12-16T22:31:20.487Z,0.70
2018-12-16T22:33:49.551Z,1.07
2018-12-16T22:36:18.515Z,1.10
2018-12-16T22:38:47.527Z,0.60
2018-12-16T22:41:16.492Z,0.60
2018-12-16T22:43:45.734Z,0.90
2018-12-16T22:46:15.021Z,0.80
2018-12-16T22:48:44.007Z,1.00
2018-12-16T22:51:13.199Z,0.80
2018-12-16T22:53:42.115Z,0.67
2018-12-16T22:56:11.269Z,0.67
2018-12-16T22:58:41.182Z,0.80
2018-12-16T23:01:16.086Z,0.97
2018-12-16T23:03:45.045Z,0.57
2018-12-16T23:06:14.017Z,0.80
2018-12-16T23:08:43.095Z,0.87
2018-12-16T23:11:12.040Z,0.70
2018-12-16T23:13:41.012Z,0.80
2018-12-16T23:16:09.988Z,0.80
2018-12-16T23:18:39.268Z,0.60
2018-12-16T23:21:08.172Z,0.70
2018-12-16T23:23:37.131Z,0.80
2018-12-16T23:26:06.227Z,0.80
2018-12-16T23:28:35.391Z,0.53
2018-12-16T23:31:04.380Z,0.60
2018-12-16T23:33:33.451Z,0.67
2018-12-16T23:36:02.428Z,0.90
2018-12-16T23:38:31.411Z,0.80
2018-12-16T23:41:00.378Z,0.80
2018-12-16T23:43:29.293Z,0.80
2018-12-16T23:45:58.263Z,0.77
2018-12-16T23:48:27.240Z,1.07
2018-12-16T23:50:56.219Z,1.20
2018-12-16T23:53:25.191Z,0.90
2018-12-16T23:55:54.163Z,0.70
2018-12-16T23:58:23.260Z,0.80
